Time;durP1;ratioP1;P1;durP2;ratioP2;P2;SDS_P1;SDS_P2;PMS_P1;PMS_P2;Temp;Humidity;BMP_temperature;BMP_pressure;BME280_temperature;BME280_humidity;BME280_pressure;Samples;Min_cycle;Max_cycle;Signal;HPM_P1;HPM_P2
2021/12/21 00:01:03;;;;;;;1.75;0.70;;;20.00;41.80;;;23.63;27.96;102461.25;5056929;28;20068;-77
2021/12/21 00:03:29;;;;;;;1.52;0.90;;;20.00;41.80;;;23.62;28.06;102458.66;5057494;28;20049;-77
2021/12/21 00:05:55;;;;;;;0.95;0.80;;;20.00;41.80;;;23.64;28.14;102460.31;5037256;28;20052;-77
2021/12/21 00:08:21;;;;;;;1.75;0.98;;;20.00;41.80;;;23.62;28.04;102464.88;5057214;28;20131;-77
2021/12/21 00:10:47;;;;;;;0.93;0.80;;;20.00;41.80;;;23.63;27.88;102461.25;5057454;28;20052;-77
2021/12/21 00:16:10;;;;;;;1.08;0.70;;;20.00;41.80;;;23.65;27.99;102461.19;5042465;28;20049;-77
2021/12/21 00:18:47;;;;;;;0.65;0.60;;;20.00;41.80;;;23.63;28.02;102455.06;5025991;28;20436;-77
2021/12/21 00:23:50;;;;;;;0.93;0.70;;;20.00;41.80;;;23.64;28.07;102462.16;5041563;28;20045;-77
2021/12/21 00:26:21;;;;;;;1.55;0.98;;;20.00;41.80;;;23.60;27.91;102453.38;5040874;28;20072;-77
2021/12/21 00:29:02;;;;;;;1.15;0.80;;;20.00;41.80;;;23.61;27.98;102452.47;5040129;28;20067;-77
2021/12/21 00:31:34;;;;;;;0.50;0.50;;;20.00;41.80;;;23.62;27.84;102459.53;5042654;28;20052;-77
2021/12/21 00:34:01;;;;;;;1.48;0.73;;;20.00;41.80;;;23.65;27.83;102461.19;5040109;28;20044;-77
2021/12/21 00:36:29;;;;;;;0.73;0.63;;;19.90;41.80;;;23.61;27.91;102455.13;5056820;28;20076;-77
2021/12/21 00:39:04;;;;;;;0.93;0.70;;;20.00;41.80;;;23.62;28.04;102461.31;5056139;28;20432;-77
2021/12/21 00:41:31;;;;;;;0.70;0.70;;;20.00;41.80;;;23.61;28.05;102457.81;5040328;28;20056;-77
2021/12/21 00:43:57;;;;;;;0.98;0.75;;;20.00;41.80;;;23.60;28.20;102461.41;5040388;28;20045;-77
2021/12/21 00:46:23;;;;;;;1.20;0.70;;;20.00;41.80;;;23.63;28.03;102465.75;5056630;28;20140;-77
2021/12/21 00:48:52;;;;;;;0.55;0.55;;;20.00;42.40;;;23.60;28.04;102464.06;5039700;28;20482;-77
2021/12/21 00:51:23;;;;;;;1.58;0.82;;;20.00;41.80;;;23.59;28.06;102461.47;5057143;28;20060;-77
2021/12/21 00:53:48;;;;;;;0.77;0.77;;;19.90;41.80;;;23.64;28.07;102463.00;5039959;28;20044;-77
2021/12/21 00:56:14;;;;;;;0.75;0.70;;;20.00;41.80;;;23.63;28.02;102463.94;5054359;28;20099;-78
2021/12/21 00:58:40;;;;;;;0.77;0.77;;;20.00;41.80;;;23.62;28.02;102464.00;5056487;28;20134;-77
2021/12/21 01:01:07;;;;;;;0.77;0.77;;;19.90;41.80;;;23.63;28.09;102457.72;5056330;28;20049;-77
2021/12/21 01:03:44;;;;;;;1.80;0.90;;;20.00;41.80;;;23.61;28.08;102454.28;5056598;28;20056;-77
2021/12/21 01:09:10;;;;;;;0.70;0.70;;;19.90;41.70;;;23.61;28.02;102456.94;5057638;28;20135;-77
2021/12/21 01:11:41;;;;;;;0.98;0.68;;;20.00;41.80;;;23.58;27.97;102441.06;5058649;28;20474;-77
2021/12/21 01:19:43;;;;;;;0.63;0.63;;;20.00;41.80;;;23.61;28.04;102452.47;5042214;28;20105;-77
2021/12/21 01:22:18;;;;;;;1.00;0.85;;;20.00;41.80;;;23.62;27.94;102458.66;5040687;28;20048;-77
2021/12/21 01:25:06;;;;;;;1.08;0.80;;;20.00;41.80;;;23.60;28.08;102447.19;5055985;28;20131;-77
2021/12/21 01:27:53;;;;;;;0.77;0.77;;;20.00;41.80;;;23.59;28.06;102449.00;5058507;28;20049;-77
2021/12/21 01:32:59;;;;;;;0.90;0.82;;;20.00;41.80;;;23.61;27.99;102456.94;5055509;28;20063;-77
2021/12/21 01:35:34;;;;;;;0.70;0.70;;;19.90;41.80;;;23.59;28.04;102446.34;5058347;28;20075;-78
2021/12/21 01:38:07;;;;;;;0.80;0.73;;;19.90;41.80;;;23.59;28.00;102441.00;5055162;28;20136;-77
2021/12/21 01:41:02;;;;;;;0.88;0.63;;;20.00;41.80;;;23.58;28.07;102438.41;5040613;28;20045;-77
2021/12/21 01:43:33;;;;;;;2.22;0.70;;;20.00;41.80;;;23.63;28.14;102447.03;5058323;28;20051;-77
2021/12/21 01:51:28;;;;;;;0.70;0.70;;;20.00;41.80;;;23.60;27.99;102437.38;5058450;28;20052;-77
2021/12/21 01:53:55;;;;;;;1.05;0.80;;;20.00;41.80;;;23.58;28.06;102435.72;5038954;28;20072;-78
2021/12/21 01:56:23;;;;;;;1.00;0.73;;;19.90;41.70;;;23.60;28.03;102432.03;5055321;28;20098;-77
2021/12/21 01:58:49;;;;;;;0.75;0.70;;;20.00;41.80;;;23.59;28.13;102432.09;5054178;28;20048;-77
2021/12/21 02:01:20;;;;;;;0.70;0.70;;;20.00;41.80;;;23.58;27.99;102430.38;5038793;28;20048;-77
2021/12/21 02:03:47;;;;;;;0.88;0.80;;;20.00;41.80;;;23.61;27.96;102422.22;5039305;28;20135;-78
2021/12/21 02:06:26;;;;;;;1.38;0.63;;;20.00;41.80;;;23.58;28.09;102417.03;5039095;28;20401;-78
2021/12/21 02:08:53;;;;;;;0.60;0.60;;;20.00;41.80;;;23.57;28.02;102418.84;5021770;28;20044;-77
2021/12/21 02:11:20;;;;;;;1.08;0.70;;;20.00;41.80;;;23.61;28.09;102424.91;5055343;28;20083;-77
2021/12/21 02:13:48;;;;;;;0.50;0.50;;;20.00;41.80;;;23.58;28.07;102423.22;5022111;28;20045;-77
2021/12/21 02:16:25;;;;;;;0.60;0.60;;;19.90;41.80;;;23.59;27.94;102410.75;5053880;28;20045;-77
2021/12/21 02:19:03;;;;;;;1.60;0.82;;;20.00;41.80;;;23.57;28.01;102409.94;5054588;28;20049;-77
2021/12/21 02:21:52;;;;;;;0.70;0.70;;;20.00;41.80;;;23.59;28.06;102411.63;5037855;28;20124;-77
2021/12/21 02:24:22;;;;;;;0.82;0.70;;;20.00;41.80;;;23.58;28.06;102404.53;5058536;28;20063;-77
2021/12/21 02:27:05;;;;;;;0.77;0.70;;;20.00;41.80;;;23.59;27.80;102400.06;5054025;28;20052;-77
2021/12/21 02:29:34;;;;;;;0.80;0.80;;;20.00;41.80;;;23.61;27.95;102408.88;5053982;28;20140;-77
2021/12/21 02:32:00;;;;;;;0.70;0.60;;;20.00;41.80;;;23.58;27.94;102401.88;5022425;28;20064;-77
2021/12/21 02:34:26;;;;;;;1.20;0.98;;;20.00;41.80;;;23.61;27.99;102403.53;5053851;28;20542;-77
2021/12/21 02:36:55;;;;;;;0.70;0.68;;;20.00;41.80;;;23.57;27.96;102402.84;5054119;28;20072;-77
2021/12/21 02:39:23;;;;;;;0.60;0.60;;;20.00;41.80;;;23.61;28.05;102408.88;5036540;28;20040;-77
2021/12/21 02:41:49;;;;;;;0.70;0.70;;;20.00;41.80;;;23.61;28.02;102395.53;5038914;28;20385;-77
2021/12/21 02:44:15;;;;;;;0.85;0.60;;;19.90;41.70;;;23.59;28.11;102390.25;5021901;28;20086;-77
2021/12/21 02:46:42;;;;;;;1.17;0.85;;;20.00;41.70;;;23.62;28.09;102399.91;5054721;28;20493;-77
2021/12/21 02:49:10;;;;;;;0.75;0.70;;;20.00;41.70;;;23.60;28.00;102399.97;5053432;28;20045;-77
2021/12/21 02:51:42;;;;;;;0.80;0.70;;;20.00;41.70;;;23.58;27.98;102391.19;5054841;28;20048;-77
2021/12/21 02:54:09;;;;;;;1.42;0.93;;;20.00;41.70;;;23.62;28.07;102399.91;5055266;28;20044;-77
2021/12/21 02:56:35;;;;;;;0.95;0.75;;;20.00;41.70;;;23.62;28.04;102399.91;5054655;28;20509;-77
2021/12/21 02:59:01;;;;;;;0.85;0.70;;;20.00;41.70;;;23.62;28.09;102395.47;5037561;28;20053;-77
2021/12/21 03:01:28;;;;;;;0.70;0.60;;;20.00;41.70;;;23.64;28.11;102398.91;5038327;28;20045;-77
2021/12/21 03:03:54;;;;;;;1.02;0.90;;;20.00;41.60;;;23.64;28.00;102398.06;5055279;28;20135;-77
2021/12/21 03:09:19;;;;;;;0.60;0.50;;;20.10;41.70;;;23.62;28.01;102387.44;5038081;28;20049;-77
2021/12/21 03:11:56;;;;;;;0.60;0.60;;;20.00;41.60;;;23.65;28.13;102383.75;5056536;28;20068;-77
2021/12/21 03:14:27;;;;;;;0.98;0.70;;;20.00;41.60;;;23.66;27.97;102397.03;5052095;28;20050;-77
2021/12/21 03:16:53;;;;;;;1.10;0.83;;;20.00;41.60;;;23.68;27.85;102397.81;5054463;28;20056;-77
2021/12/21 03:19:19;;;;;;;1.08;1.02;;;20.10;41.60;;;23.70;27.98;102404.88;5053339;28;20510;-77
2021/12/21 03:21:45;;;;;;;0.80;0.70;;;20.10;41.60;;;23.68;27.96;102397.81;5054279;28;20059;-77
2021/12/21 03:24:12;;;;;;;0.60;0.60;;;20.10;41.50;;;23.67;27.83;102388.09;5052284;28;20049;-77
2021/12/21 03:26:38;;;;;;;0.98;0.70;;;20.10;41.50;;;23.72;27.76;102389.66;5054221;28;20097;-77
2021/12/21 03:29:05;;;;;;;0.75;0.70;;;20.10;41.40;;;23.73;27.72;102386.03;5035894;28;20052;-77
2021/12/21 03:31:32;;;;;;;0.55;0.50;;;20.10;41.50;;;23.72;27.98;102378.97;5054391;28;20048;-77
2021/12/21 03:33:57;;;;;;;1.98;1.13;;;20.10;41.40;;;23.75;27.90;102394.84;5057090;28;20040;-77
2021/12/21 03:36:24;;;;;;;1.02;0.70;;;20.20;41.50;;;23.74;27.79;102391.31;5057687;28;20049;-77
2021/12/21 03:39:17;;;;;;;0.98;0.75;;;20.20;41.50;;;23.75;27.96;102389.50;5040909;28;20079;-77
2021/12/21 03:41:41;;;;;;;0.77;0.77;;;20.20;41.50;;;23.76;27.92;102384.09;5043334;28;20044;-77
2021/12/21 03:44:09;;;;;;;0.82;0.80;;;20.10;41.40;;;23.77;27.95;102385.81;5024533;28;20494;-77
2021/12/21 03:46:44;;;;;;;0.88;0.77;;;20.20;41.50;;;23.80;27.76;102384.78;5025268;28;20057;-77
2021/12/21 03:49:47;;;;;;;1.40;0.90;;;20.20;41.40;;;23.81;27.87;102389.19;5058327;28;20080;-77
2021/12/21 03:51:57;;;;;;;1.17;0.85;;;20.20;41.40;;;23.79;27.75;102378.59;5075610;28;20144;-77
2021/12/21 03:54:23;;;;;;;0.90;0.80;;;20.20;41.40;;;23.82;27.84;102382.94;5022982;28;20052;-77
2021/12/21 03:56:51;;;;;;;0.57;0.57;;;20.20;41.40;;;23.79;27.85;102367.91;5055372;28;20143;-77
2021/12/21 03:59:18;;;;;;;0.95;0.50;;;20.20;41.40;;;23.80;27.88;102384.78;5057868;28;20131;-78
2021/12/21 04:01:44;;;;;;;0.95;0.80;;;20.20;41.40;;;23.81;27.63;102383.88;5024200;28;20052;-78
2021/12/21 04:04:10;;;;;;;0.70;0.60;;;20.20;41.40;;;23.81;27.86;102383.88;5055065;28;20045;-77
2021/12/21 04:06:36;;;;;;;0.70;0.70;;;20.20;41.90;;;23.80;27.84;102380.31;5055281;28;20111;-77
2021/12/21 04:09:05;;;;;;;0.95;0.60;;;20.20;41.30;;;23.82;27.80;102380.25;5040045;28;20141;-77
2021/12/21 04:11:32;;;;;;;0.80;0.80;;;20.20;41.30;;;23.83;27.63;102374.84;5057126;28;20456;-77
2021/12/21 04:13:58;;;;;;;0.73;0.70;;;20.20;41.40;;;23.82;27.81;102364.25;5057015;28;20163;-77
2021/12/21 04:16:24;;;;;;;0.80;0.68;;;20.20;41.30;;;23.83;27.78;102377.50;5055518;28;20049;-77
2021/12/21 04:18:50;;;;;;;1.08;0.73;;;20.20;41.30;;;23.83;27.79;102382.84;5056749;28;20122;-77
2021/12/21 04:21:16;;;;;;;0.90;0.80;;;20.20;41.30;;;23.83;27.64;102377.50;5056961;28;20044;-77
2021/12/21 04:23:43;;;;;;;1.80;0.82;;;20.20;41.30;;;23.82;27.78;102375.81;5022877;28;20053;-77
2021/12/21 04:26:11;;;;;;;1.92;0.80;;;20.20;41.30;;;23.84;27.74;102384.59;5056916;28;20043;-77
2021/12/21 04:28:38;;;;;;;1.15;0.82;;;20.20;41.30;;;23.83;27.65;102382.00;5053079;28;20057;-77
2021/12/21 04:31:05;;;;;;;0.98;0.68;;;20.20;41.30;;;23.87;27.67;102383.56;5056041;28;20446;-77
2021/12/21 04:33:32;;;;;;;0.82;0.82;;;20.20;41.30;;;23.88;27.68;102381.78;5056783;28;20045;-77
2021/12/21 04:35:58;;;;;;;0.80;0.80;;;20.20;41.30;;;23.84;27.94;102379.25;5040153;28;20040;-78
2021/12/21 04:38:30;;;;;;;0.88;0.88;;;20.20;41.30;;;23.84;27.60;102379.25;5056837;28;20041;-77
2021/12/21 04:41:09;;;;;;;0.73;0.68;;;20.20;41.20;;;23.84;27.90;102389.94;5057284;28;20133;-77
2021/12/21 04:43:35;;;;;;;0.80;0.70;;;20.20;41.30;;;23.85;27.57;102391.66;5025267;28;20468;-77
2021/12/21 04:46:01;;;;;;;0.95;0.70;;;20.20;41.30;;;23.86;27.73;102393.41;5039416;28;20049;-77
2021/12/21 04:48:27;;;;;;;0.68;0.68;;;20.20;41.30;;;23.83;27.91;102371.31;5039853;28;20402;-77
2021/12/21 04:50:53;;;;;;;0.52;0.52;;;20.20;41.30;;;23.87;27.75;102388.91;5056900;28;20133;-77
2021/12/21 04:53:21;;;;;;;1.23;0.80;;;20.20;41.30;;;23.86;27.60;102380.03;5056458;28;20048;-77
2021/12/21 04:55:47;;;;;;;0.77;0.77;;;20.20;41.30;;;23.84;27.82;102386.41;5056463;28;20509;-77
2021/12/21 04:58:12;;;;;;;0.75;0.70;;;20.20;41.30;;;23.86;27.54;102382.72;5039844;28;20045;-77
2021/12/21 05:00:40;;;;;;;1.00;0.90;;;20.20;41.30;;;23.86;27.74;102380.03;5039649;28;20485;-78
2021/12/21 05:03:06;;;;;;;0.90;0.70;;;20.20;41.30;;;23.84;27.50;102379.25;5056459;28;20063;-78
2021/12/21 05:05:32;;;;;;;1.23;0.60;;;20.20;41.30;;;23.83;27.79;102374.84;5053859;28;20049;-77
2021/12/21 05:08:09;;;;;;;0.63;0.60;;;20.20;41.30;;;23.85;27.53;102388.13;5023221;28;20045;-77
2021/12/21 05:10:48;;;;;;;1.80;0.85;;;20.20;41.30;;;23.84;27.72;102391.75;5057706;28;20047;-77
2021/12/21 05:13:19;;;;;;;0.75;0.75;;;20.20;41.30;;;23.83;27.67;102393.53;5040329;28;20101;-77
2021/12/21 05:15:45;;;;;;;1.30;0.80;;;20.20;41.30;;;23.85;27.57;102388.97;5039450;28;20048;-78
2021/12/21 05:18:14;;;;;;;1.55;0.90;;;20.20;41.30;;;23.83;27.74;102384.69;5023028;28;20082;-77
2021/12/21 05:20:41;;;;;;;0.82;0.80;;;20.20;41.30;;;23.88;27.73;102392.47;5022446;28;20115;-77
2021/12/21 05:23:08;;;;;;;0.82;0.70;;;20.20;41.30;;;23.84;27.80;102384.59;5055480;28;20049;-77
2021/12/21 05:25:34;;;;;;;1.08;0.90;;;20.20;41.30;;;23.85;27.72;102378.28;5039624;28;20402;-77
2021/12/21 05:28:00;;;;;;;0.70;0.70;;;20.20;41.20;;;23.86;27.64;102384.53;5039528;28;20076;-78
2021/12/21 05:30:27;;;;;;;0.43;0.43;;;20.20;41.30;;;23.86;27.72;102376.50;5038790;28;20067;-77
2021/12/21 05:32:55;;;;;;;0.82;0.73;;;20.20;41.20;;;23.89;27.75;102378.16;5038486;28;20132;-77
2021/12/21 05:35:22;;;;;;;1.35;0.80;;;20.30;41.30;;;23.88;27.90;102379.09;5055957;28;20044;-77
2021/12/21 05:37:51;;;;;;;0.70;0.70;;;20.20;41.20;;;23.86;27.49;102387.19;5039200;28;20059;-77
2021/12/21 05:40:18;;;;;;;0.70;0.70;;;20.30;41.20;;;23.90;27.63;102382.56;5055901;28;20051;-77
2021/12/21 05:42:47;;;;;;;0.73;0.65;;;20.20;41.20;;;23.87;27.69;102372.88;5039302;28;20045;-77
2021/12/21 05:45:17;;;;;;;1.65;1.00;;;20.30;41.20;;;23.88;27.79;102381.78;5038934;28;20544;-77
2021/12/21 05:47:43;;;;;;;1.20;1.10;;;20.30;41.20;;;23.89;27.57;102378.16;5038900;28;20076;-77
2021/12/21 05:50:16;;;;;;;0.90;0.90;;;20.30;41.20;;;23.91;27.72;102386.97;5055495;28;20059;-77
2021/12/21 05:52:42;;;;;;;0.70;0.70;;;20.30;41.20;;;23.90;27.71;102382.56;5055098;28;20413;-77
2021/12/21 05:55:09;;;;;;;0.65;0.65;;;20.30;41.20;;;23.91;27.69;102385.16;5021203;28;20406;-77
2021/12/21 05:57:35;;;;;;;0.90;0.70;;;20.30;41.10;;;23.91;27.61;102381.63;5055455;28;20052;-77
2021/12/21 06:00:03;;;;;;;0.60;0.60;;;20.30;41.20;;;23.90;27.82;102380.75;5055201;28;20513;-77
2021/12/21 06:02:30;;;;;;;0.80;0.80;;;20.30;41.20;;;23.90;27.66;102379.88;5055549;28;20064;-78
2021/12/21 06:04:55;;;;;;;1.02;0.80;;;20.30;41.20;;;23.87;27.72;102375.56;5055762;28;20389;-77
2021/12/21 06:07:22;;;;;;;0.95;0.68;;;20.30;41.20;;;23.92;27.84;102386.00;5055419;28;20398;-77
2021/12/21 06:09:50;;;;;;;1.20;0.70;;;20.30;41.20;;;23.90;27.56;102375.41;5038571;28;20451;-77
2021/12/21 06:13:25;;;;;;;1.25;1.15;;;20.30;41.20;;;23.93;27.52;102387.75;5192935;27;20213;-78
2021/12/21 06:26:14;;;;;;;1.92;0.82;;;20.30;41.10;;;23.93;27.63;102385.09;5135541;27;20035;-78
2021/12/21 06:28:42;;;;;;;0.88;0.88;;;20.30;41.10;;;23.91;27.61;102382.47;5153215;27;20057;-78
2021/12/21 06:31:08;;;;;;;0.98;0.90;;;20.30;41.10;;;23.90;27.64;102386.09;5135690;27;20478;-78
2021/12/21 06:33:34;;;;;;;0.70;0.60;;;20.30;41.20;;;23.90;27.71;102380.75;5118540;27;20038;-78
2021/12/21 06:36:00;;;;;;;1.40;0.90;;;20.30;41.20;;;23.94;27.61;102384.13;5152948;27;20194;-78
2021/12/21 06:38:26;;;;;;;1.00;0.80;;;20.30;41.10;;;23.91;27.54;102385.16;5152744;27;20121;-78
2021/12/21 06:40:53;;;;;;;1.02;0.73;;;20.30;41.10;;;23.92;27.60;102384.19;5135964;27;20057;-78
2021/12/21 06:43:19;;;;;;;0.70;0.68;;;20.30;41.10;;;23.91;27.70;102382.47;5135514;27;20051;-78
2021/12/21 06:45:54;;;;;;;1.85;0.93;;;20.30;41.20;;;23.92;27.47;102386.88;5135413;27;20495;-78
2021/12/21 06:51:20;;;;;;;1.52;1.00;;;20.30;41.20;;;23.92;27.76;102381.53;5135406;27;20054;-78
2021/12/21 06:53:50;;;;;;;1.13;0.90;;;20.30;41.10;;;23.92;27.55;102383.34;5133470;27;20050;-78
2021/12/21 06:56:19;;;;;;;0.70;0.70;;;20.30;41.10;;;23.94;27.46;102384.13;5135254;27;20046;-78
2021/12/21 06:58:45;;;;;;;0.98;0.80;;;20.30;41.10;;;23.93;27.43;102377.06;5117974;27;20038;-78
2021/12/21 07:01:13;;;;;;;1.77;0.90;;;20.30;41.10;;;23.92;27.42;102383.34;5135508;27;20087;-78
2021/12/21 07:03:41;;;;;;;2.10;0.88;;;20.30;41.10;;;23.93;27.52;102398.44;5135823;27;20379;-78
2021/12/21 07:06:08;;;;;;;0.82;0.60;;;20.30;41.10;;;23.93;27.54;102385.94;5116801;27;20050;-78
2021/12/21 07:19:30;;;;;;;1.00;0.70;;;20.30;41.10;;;23.90;27.45;102385.22;5153875;27;20502;-78
2021/12/21 07:21:56;;;;;;;2.38;0.90;;;20.30;41.10;;;23.91;27.47;102403.84;5113550;27;20051;-78
2021/12/21 07:24:24;;;;;;;0.70;0.70;;;20.30;41.10;;;23.88;27.52;102392.47;5121611;27;20043;-78
2021/12/21 07:26:49;;;;;;;0.90;0.90;;;20.30;41.10;;;23.92;27.60;102388.69;5103854;27;20129;-78
2021/12/21 07:29:16;;;;;;;0.70;0.70;;;20.30;41.60;;;23.92;27.59;102396.69;5138085;27;20119;-78
2021/12/21 07:31:41;;;;;;;1.35;1.10;;;20.30;41.10;;;23.91;27.55;102390.50;5120920;27;20047;-78
2021/12/21 07:34:07;;;;;;;1.52;0.80;;;20.30;41.10;;;23.94;27.64;102403.72;5104437;27;20130;-78
2021/12/21 07:36:34;;;;;;;0.95;0.85;;;20.30;41.10;;;23.95;27.42;102407.22;5121013;27;20524;-78
2021/12/21 07:39:03;;;;;;;2.40;1.00;;;20.30;41.10;;;23.91;27.42;102390.50;5138001;27;20050;-77
2021/12/21 07:41:28;;;;;;;1.83;0.88;;;20.30;41.00;;;23.94;27.48;102392.13;5119574;27;20058;-77
2021/12/21 07:43:54;;;;;;;1.27;0.70;;;20.30;41.00;;;23.96;27.60;102398.28;5120833;27;20043;-77
2021/12/21 07:46:20;;;;;;;0.73;0.63;;;20.30;41.00;;;23.97;27.34;102400.00;5137788;27;20062;-77
2021/12/21 07:48:46;;;;;;;0.80;0.80;;;20.30;41.00;;;23.96;27.62;102399.16;5137968;27;20047;-77
2021/12/21 07:51:12;;;;;;;0.85;0.70;;;20.30;41.00;;;23.97;27.42;102408.00;5102355;27;20055;-78
2021/12/21 07:53:38;;;;;;;2.55;0.88;;;20.30;41.00;;;23.97;27.43;102394.66;5137958;27;20130;-78
2021/12/21 07:56:04;;;;;;;0.80;0.75;;;20.30;41.00;;;23.98;27.45;102409.75;5120486;27;20142;-78
2021/12/21 07:58:35;;;;;;;1.13;0.95;;;20.30;41.00;;;23.98;27.42;102399.94;5104479;27;20051;-78
2021/12/21 08:01:06;;;;;;;1.10;1.00;;;20.40;41.00;;;23.97;27.54;102392.88;5100079;27;20146;-77
2021/12/21 08:03:33;;;;;;;1.02;0.93;;;20.40;40.90;;;24.00;27.39;102400.69;5137736;27;20111;-78
2021/12/21 08:06:02;;;;;;;1.67;0.93;;;20.40;41.00;;;24.02;27.39;102398.84;5137860;27;20046;-78
2021/12/21 08:08:29;;;;;;;0.85;0.70;;;20.40;40.90;;;24.00;27.49;102402.53;5120456;27;20043;-77
2021/12/21 08:11:11;;;;;;;1.27;1.00;;;20.40;40.90;;;24.05;27.38;102408.50;5137457;27;20066;-77
2021/12/21 08:13:39;;;;;;;1.08;0.90;;;20.40;40.80;;;24.00;27.28;102399.84;5104697;27;20399;-78
2021/12/21 08:16:06;;;;;;;1.13;0.80;;;20.40;40.90;;;24.03;27.33;102408.56;5120126;27;20039;-78
2021/12/21 08:18:32;;;;;;;4.85;1.08;;;20.40;40.80;;;24.02;27.41;102405.97;5120241;27;20478;-78
2021/12/21 08:20:58;;;;;;;1.48;0.90;;;20.40;40.80;;;23.99;27.37;102399.00;5103487;27;20061;-78
2021/12/21 08:23:25;;;;;;;1.00;0.80;;;20.40;40.80;;;24.05;27.55;102411.16;5137357;27;20122;-78
2021/12/21 08:25:54;;;;;;;1.80;0.90;;;20.40;40.80;;;24.08;27.48;102415.50;5103170;27;20047;-78
2021/12/21 08:28:20;;;;;;;2.55;1.00;;;20.40;40.80;;;24.06;27.31;102404.88;5137538;27;20122;-78
2021/12/21 08:30:47;;;;;;;1.63;1.02;;;20.40;40.80;;;24.07;27.26;102408.41;5100928;27;20039;-78
2021/12/21 08:33:12;;;;;;;0.77;0.77;;;20.40;40.90;;;24.05;27.23;102409.34;5137011;27;20043;-78
2021/12/21 08:35:39;;;;;;;1.02;0.88;;;20.40;40.80;;;24.04;27.25;102402.28;5101912;27;20103;-78
2021/12/21 08:38:08;;;;;;;1.33;1.10;;;20.40;40.90;;;24.05;27.27;102404.00;5120009;27;20042;-78
2021/12/21 08:40:40;;;;;;;1.42;0.80;;;20.40;40.80;;;24.05;27.31;102406.69;5087038;27;20448;-78
2021/12/21 08:43:10;;;;;;;0.93;0.70;;;20.40;40.80;;;24.04;27.33;102396.09;5120465;27;20038;-78
2021/12/21 08:45:38;;;;;;;1.00;0.90;;;20.40;40.80;;;24.07;27.41;102400.41;5102703;27;20126;-78
2021/12/21 08:48:05;;;;;;;0.88;0.88;;;20.40;40.80;;;24.05;27.29;102398.66;5136869;27;20482;-78
2021/12/21 08:50:32;;;;;;;1.70;0.90;;;20.40;40.90;;;24.00;27.34;102390.00;5136934;27;20047;-78
2021/12/21 08:52:59;;;;;;;1.08;0.80;;;20.40;40.80;;;24.08;27.29;102396.81;5120087;27;20053;-78
2021/12/21 08:55:25;;;;;;;2.38;1.13;;;20.40;40.80;;;24.06;27.38;102394.19;5119285;27;20391;-78
2021/12/21 08:57:51;;;;;;;1.50;0.80;;;20.40;40.80;;;24.08;27.44;102391.47;5120296;27;20506;-78
2021/12/21 09:00:17;;;;;;;0.82;0.82;;;20.40;40.70;;;24.07;27.18;102392.38;5137029;27;20047;-78
2021/12/21 09:02:43;;;;;;;2.85;1.27;;;20.50;40.80;;;24.06;27.35;102396.88;5119949;27;20046;-78
2021/12/21 09:05:14;;;;;;;2.97;1.10;;;20.40;40.70;;;24.08;27.24;102399.47;5135763;27;20043;-78
2021/12/21 09:07:41;;;;;;;1.85;1.05;;;20.50;40.70;;;24.10;27.28;102389.56;5137270;27;20053;-78
2021/12/21 09:10:09;;;;;;;1.40;0.98;;;20.50;40.70;;;24.12;27.32;102393.88;5119789;27;20054;-78
2021/12/21 09:12:35;;;;;;;2.42;1.10;;;20.50;40.70;;;24.12;27.12;102385.00;5102406;27;20050;-78
2021/12/21 09:15:03;;;;;;;3.47;1.15;;;20.50;40.60;;;24.11;27.35;102393.97;5119417;27;20057;-78
2021/12/21 09:17:29;;;;;;;0.77;0.77;;;20.50;40.70;;;24.10;27.16;102387.75;5136373;27;20047;-78
2021/12/21 09:19:57;;;;;;;1.20;0.90;;;20.50;40.60;;;24.15;27.53;102395.53;5136354;27;20398;-78
2021/12/21 09:22:25;;;;;;;1.23;0.90;;;20.50;40.60;;;24.15;27.32;102404.41;5101362;27;20043;-78
2021/12/21 09:24:53;;;;;;;1.05;0.90;;;20.50;40.60;;;24.14;27.24;102401.81;5119519;27;20134;-78
2021/12/21 09:27:20;;;;;;;2.72;1.10;;;20.50;40.50;;;24.13;27.13;102398.28;5136390;27;20043;-78
2021/12/21 09:29:48;;;;;;;0.70;0.70;;;20.60;40.60;;;24.15;27.29;102396.38;5135540;27;20498;-78
2021/12/21 09:32:15;;;;;;;1.17;0.90;;;20.60;40.60;;;24.16;27.35;102403.47;5102461;27;20047;-78
2021/12/21 09:34:42;;;;;;;1.60;1.00;;;20.60;40.60;;;24.13;27.08;102394.75;5117466;27;20047;-78
2021/12/21 09:37:14;;;;;;;1.38;0.90;;;20.50;40.60;;;24.15;27.28;102403.56;5101814;27;20073;-78
2021/12/21 09:39:42;;;;;;;1.10;0.85;;;20.60;40.70;;;24.15;27.34;102399.06;5101709;27;20042;-78
2021/12/21 09:42:08;;;;;;;2.00;0.85;;;20.60;40.60;;;24.16;27.26;102410.63;5101371;27;20070;-78
2021/12/21 09:44:34;;;;;;;2.92;0.80;;;20.60;40.60;;;24.17;27.11;102410.56;5100382;27;20102;-78
2021/12/21 09:47:01;;;;;;;1.30;0.80;;;20.50;40.50;;;24.16;27.28;102408.81;5101101;27;20141;-78
2021/12/21 09:49:27;;;;;;;1.10;0.90;;;20.50;40.50;;;24.16;27.11;102399.94;5117406;27;20130;-78
2021/12/21 09:51:53;;;;;;;2.30;0.90;;;20.50;40.50;;;24.16;27.12;102406.16;5133821;27;20103;-77
2021/12/21 09:54:19;;;;;;;3.50;1.25;;;20.60;40.60;;;24.14;27.15;102409.81;5118744;27;20103;-78
2021/12/21 09:56:45;;;;;;;1.27;0.80;;;20.50;40.50;;;24.16;27.19;102414.16;5119067;27;20047;-78
2021/12/21 09:59:11;;;;;;;1.20;0.80;;;20.60;40.50;;;24.15;27.10;102409.75;5133808;27;20055;-78
2021/12/21 10:01:37;;;;;;;1.17;0.90;;;20.60;40.50;;;24.15;27.01;102415.09;5103550;27;20145;-78
2021/12/21 10:04:03;;;;;;;1.42;0.93;;;20.60;40.60;;;24.17;27.07;102415.03;5101553;27;20043;-78
2021/12/21 10:06:29;;;;;;;1.90;1.20;;;20.60;40.60;;;24.16;27.12;102424.00;5118679;27;20050;-78
2021/12/21 10:09:07;;;;;;;1.55;0.98;;;20.60;40.60;;;24.12;27.35;102414.41;5135756;27;20474;-78
2021/12/21 10:11:48;;;;;;;2.05;1.05;;;20.50;40.60;;;24.13;27.30;102414.31;5118816;27;20050;-78
2021/12/21 10:14:16;;;;;;;0.75;0.73;;;20.50;40.60;;;24.17;27.20;102420.38;5118489;27;20045;-78
2021/12/21 10:16:44;;;;;;;2.30;1.05;;;20.50;40.60;;;24.15;26.98;102419.59;5101479;27;20105;-78
2021/12/21 10:19:24;;;;;;;1.75;0.95;;;20.50;40.60;;;24.14;27.19;102424.06;5136070;27;20058;-78
2021/12/21 10:21:50;;;;;;;0.90;0.88;;;20.50;40.60;;;24.15;27.10;102425.78;5117121;27;20051;-78
2021/12/21 10:24:26;;;;;;;1.42;0.90;;;20.50;40.60;;;24.14;27.36;102426.75;5116223;27;20075;-78
2021/12/21 10:27:05;;;;;;;2.50;1.10;;;20.50;40.60;;;24.15;27.25;102422.25;5102033;27;20051;-78
2021/12/21 10:29:48;;;;;;;1.98;0.85;;;20.50;40.50;;;24.16;27.33;102419.50;5134742;27;20498;-78
2021/12/21 10:32:27;;;;;;;0.82;0.77;;;20.60;40.60;;;24.12;27.21;102412.56;5135057;27;20051;-77
2021/12/21 10:35:10;;;;;;;1.02;0.90;;;20.60;40.60;;;24.14;27.12;102407.16;5118291;27;20394;-78
2021/12/21 10:37:39;;;;;;;2.15;1.05;;;20.60;40.50;;;24.19;27.09;102413.13;5118683;27;20043;-78
2021/12/21 10:40:22;;;;;;;1.20;0.98;;;20.60;40.60;;;24.17;27.23;102426.59;5117759;27;20057;-78
2021/12/21 10:43:03;;;;;;;2.58;0.98;;;20.60;40.50;;;24.15;27.30;102420.44;5119280;27;20130;-78
2021/12/21 10:45:41;;;;;;;4.45;1.20;;;20.60;40.50;;;24.19;27.07;102421.13;5118311;27;20070;-77
2021/12/21 10:48:18;;;;;;;1.05;0.90;;;20.60;40.50;;;24.18;27.19;102420.28;5118403;27;20070;-77
2021/12/21 10:50:46;;;;;;;1.02;0.90;;;20.60;40.50;;;24.16;27.13;102414.16;5112125;27;20047;-77
2021/12/21 10:53:23;;;;;;;1.83;1.10;;;20.60;40.50;;;24.16;27.23;102415.97;5101107;27;20046;-77
2021/12/21 10:56:06;;;;;;;1.95;1.27;;;20.60;40.50;;;24.21;27.22;102419.28;5118503;27;20049;-77
2021/12/21 10:58:43;;;;;;;2.15;1.00;;;20.60;40.50;;;24.19;27.08;102415.78;5120518;27;20569;-78
2021/12/21 11:01:17;;;;;;;1.05;0.93;;;20.60;40.50;;;24.17;27.10;102407.88;5121381;27;20062;-78
2021/12/21 11:03:52;;;;;;;3.53;1.05;;;20.60;40.40;;;24.19;27.21;102403.31;5121666;27;20038;-77
2021/12/21 11:06:27;;;;;;;1.02;0.90;;;20.60;40.40;;;24.18;27.10;102400.72;5105421;27;20054;-78
2021/12/21 11:08:55;;;;;;;1.65;0.95;;;20.60;40.40;;;24.21;27.14;102401.44;5121917;27;20065;-79
2021/12/21 11:11:33;;;;;;;1.33;1.05;;;20.60;40.40;;;24.19;27.07;102406.00;5137808;27;20043;-77